Terminal Aerodrome Forecast
Issued by NWS

Current Version | Previous Version | Text Only | Print | Product List | Glossary On
Versions: 1 2 3 4 5 6 7 8 9 10 11 12 13
495
FTUS45 KVEF 192324
TAFEED
TAF
KEED 192324Z 2000/2024 26015G25KT P6SM SCT100
     FM200300 28011KT P6SM SCT100
     FM201200 25006KT P6SM FEW100
     FM202100 34008KT P6SM SKC=

USA.gov is the U.S. government's official web portal to all federal, state and local government web resources and services.